createdAt,value
2022-08-11T00:00:38.058Z,77.77
2022-08-11T00:01:38.056Z,77.87
2022-08-11T00:02:38.355Z,78.11
2022-08-11T00:03:43.123Z,78.62
2022-08-11T00:04:38.028Z,78.41
2022-08-11T00:05:38.009Z,78.52
2022-08-11T00:06:38.006Z,78.52
2022-08-11T00:07:38.013Z,79.02
2022-08-11T00:08:37.989Z,79.13
2022-08-11T00:09:39.161Z,79.33
2022-08-11T00:10:37.970Z,79.27
2022-08-11T00:11:37.967Z,79.77
2022-08-11T00:12:38.162Z,79.98
2022-08-11T00:13:37.937Z,80.29
2022-08-11T00:14:46.279Z,80.90
2022-08-11T00:15:48.761Z,80.79
2022-08-11T00:16:47.471Z,79.98
2022-08-11T00:17:46.336Z,80.69
2022-08-11T00:18:46.355Z,80.18
2022-08-11T00:20:12.616Z,80.59
2022-08-11T00:20:37.884Z,80.90
2022-08-11T00:22:05.119Z,81.20
2022-08-11T00:22:38.183Z,80.59
2022-08-11T00:23:37.849Z,80.69
2022-08-11T00:24:53.699Z,80.99
2022-08-11T00:25:37.837Z,80.99
2022-08-11T00:26:37.830Z,80.99
2022-08-11T00:27:37.817Z,81.51
2022-08-11T00:28:37.855Z,81.20
2022-08-11T00:29:38.034Z,81.30
2022-08-11T00:30:37.805Z,81.10
2022-08-11T00:31:37.780Z,80.99
2022-08-11T00:32:37.977Z,81.30
2022-08-11T00:33:44.184Z,81.24
2022-08-11T00:34:37.770Z,81.44
2022-08-11T00:35:51.692Z,81.71
2022-08-11T00:36:37.752Z,81.71
2022-08-11T00:37:37.732Z,82.21
2022-08-11T00:38:37.743Z,82.01
2022-08-11T00:39:37.765Z,81.71
2022-08-11T00:40:37.710Z,81.30
2022-08-11T00:41:37.692Z,81.81
2022-08-11T00:42:37.912Z,82.21
2022-08-11T00:43:37.696Z,82.87
2022-08-11T00:44:37.675Z,82.66
2022-08-11T00:45:37.656Z,83.17
2022-08-11T00:46:37.653Z,82.15
2022-08-11T00:47:37.646Z,81.85
2022-08-11T00:48:37.664Z,81.95
2022-08-11T00:49:37.623Z,81.95
2022-08-11T00:50:37.637Z,82.66
2022-08-11T00:52:03.753Z,82.66
2022-08-11T00:52:37.735Z,81.85
2022-08-11T00:53:37.592Z,81.44
2022-08-11T00:54:37.602Z,81.24
2022-08-11T00:55:37.569Z,81.44
2022-08-11T00:56:37.572Z,81.65
2022-08-11T00:57:38.626Z,81.54
2022-08-11T00:58:37.561Z,81.54
2022-08-11T00:59:37.559Z,81.99
2022-08-11T01:00:37.653Z,82.60
2022-08-11T01:01:37.525Z,82.50
2022-08-11T01:02:37.629Z,82.70
2022-08-11T01:03:37.513Z,82.35
2022-08-11T01:04:37.518Z,81.54
2022-08-11T01:05:37.517Z,82.66
2022-08-11T01:06:37.479Z,82.56
2022-08-11T01:08:00.656Z,82.56
2022-08-11T01:08:37.474Z,82.76
2022-08-11T01:09:37.452Z,82.56
2022-08-11T01:10:37.448Z,82.76
2022-08-11T01:11:37.455Z,81.95
2022-08-11T01:12:37.617Z,81.34
2022-08-11T01:13:37.421Z,81.04
2022-08-11T01:14:37.413Z,81.54
2022-08-11T01:15:37.398Z,81.99
2022-08-11T01:16:37.441Z,81.79
2022-08-11T01:17:37.396Z,83.01
2022-08-11T01:18:37.379Z,82.80
2022-08-11T01:20:16.261Z,82.50
2022-08-11T01:20:52.805Z,83.01
2022-08-11T01:21:37.346Z,83.62
2022-08-11T01:22:37.443Z,83.62
2022-08-11T01:23:37.336Z,83.72
2022-08-11T01:24:37.353Z,82.60
2022-08-11T01:25:57.245Z,81.58
2022-08-11T01:26:37.319Z,81.48
2022-08-11T01:27:37.310Z,81.52
2022-08-11T01:28:37.315Z,81.62
2022-08-11T01:29:37.281Z,82.84
2022-08-11T01:30:37.276Z,83.04
2022-08-11T01:31:37.272Z,82.88
2022-08-11T01:32:37.449Z,83.18
2022-08-11T01:33:37.257Z,83.29
2022-08-11T01:34:37.243Z,84.61
2022-08-11T01:35:37.351Z,84.41
2022-08-11T01:36:37.222Z,84.92
2022-08-11T01:37:37.213Z,84.72
2022-08-11T01:38:37.230Z,84.61
2022-08-11T01:39:37.285Z,84.72
2022-08-11T01:40:37.222Z,85.02
2022-08-11T01:41:37.171Z,85.84
2022-08-11T01:42:37.382Z,86.04
2022-08-11T01:43:37.180Z,85.84
2022-08-11T01:44:37.152Z,85.63
2022-08-11T01:45:37.139Z,85.22
2022-08-11T01:46:37.141Z,84.61
2022-08-11T01:47:37.125Z,85.13
2022-08-11T01:48:37.119Z,86.04
2022-08-11T01:50:07.688Z,85.84
2022-08-11T01:50:37.107Z,85.74
2022-08-11T01:51:38.376Z,85.22
2022-08-11T01:52:37.087Z,86.39
2022-08-11T01:53:37.076Z,86.08
2022-08-11T01:54:37.087Z,86.59
2022-08-11T01:55:37.053Z,86.29
2022-08-11T01:56:37.060Z,86.49
2022-08-11T01:57:37.044Z,86.18
2022-08-11T01:58:43.489Z,85.68
2022-08-11T01:59:37.053Z,85.27
2022-08-11T02:00:37.103Z,84.96
2022-08-11T02:01:37.001Z,85.06
2022-08-11T02:02:37.183Z,85.06
2022-08-11T02:03:36.987Z,85.16
2022-08-11T02:04:36.979Z,85.06
2022-08-11T02:05:36.982Z,85.16
2022-08-11T02:06:36.960Z,85.16
2022-08-11T02:07:36.952Z,84.96
2022-08-11T02:08:36.945Z,85.88
2022-08-11T02:09:36.930Z,86.59
2022-08-11T02:10:38.426Z,85.98
2022-08-11T02:11:37.463Z,84.96
2022-08-11T02:12:37.172Z,84.55
2022-08-11T02:13:37.281Z,84.96
2022-08-11T02:14:36.898Z,85.57
2022-08-11T02:15:36.876Z,86.49
2022-08-11T02:16:36.892Z,86.29
2022-08-11T02:17:36.936Z,86.29
2022-08-11T02:18:36.860Z,85.77
2022-08-11T02:19:36.846Z,85.88
2022-08-11T02:20:36.836Z,86.29
2022-08-11T02:21:36.842Z,86.59
2022-08-11T02:22:36.972Z,86.49
2022-08-11T02:24:05.622Z,86.43
2022-08-11T02:24:36.961Z,86.33
2022-08-11T02:25:36.788Z,86.22
2022-08-11T02:26:36.790Z,86.63
2022-08-11T02:27:36.792Z,86.33
2022-08-11T02:28:40.112Z,85.92
2022-08-11T02:29:36.759Z,86.02
2022-08-11T02:30:36.750Z,86.22
2022-08-11T02:32:15.860Z,86.83
2022-08-11T02:32:36.903Z,86.59
2022-08-11T02:33:36.804Z,86.08
2022-08-11T02:34:36.718Z,85.06
2022-08-11T02:35:36.709Z,85.37
2022-08-11T02:36:36.705Z,85.06
2022-08-11T02:37:36.711Z,85.68
2022-08-11T02:38:36.692Z,85.88
2022-08-11T02:39:36.727Z,85.27
2022-08-11T02:40:36.668Z,85.68
2022-08-11T02:41:36.744Z,85.68
2022-08-11T02:42:36.650Z,85.68
2022-08-11T02:43:36.652Z,86.29
2022-08-11T02:44:36.722Z,85.98
2022-08-11T02:45:36.623Z,84.96
2022-08-11T02:46:36.613Z,84.75
2022-08-11T02:47:36.624Z,84.45
2022-08-11T02:48:36.604Z,84.55
2022-08-11T02:49:36.588Z,84.59
2022-08-11T02:50:36.580Z,84.80
2022-08-11T02:51:36.668Z,85.51
2022-08-11T02:52:36.823Z,85.30
2022-08-11T02:53:36.549Z,85.30
2022-08-11T02:54:36.552Z,86.02
2022-08-11T02:55:48.076Z,86.83
2022-08-11T02:56:36.531Z,86.98
2022-08-11T02:57:36.518Z,86.67
2022-08-11T02:58:36.525Z,87.29
2022-08-11T02:59:36.492Z,87.08
2022-08-11T03:00:36.514Z,87.08
2022-08-11T03:01:36.522Z,87.49
2022-08-11T03:02:36.603Z,87.23
2022-08-11T03:03:36.483Z,87.53
2022-08-11T03:04:37.717Z,87.94
2022-08-11T03:05:36.448Z,87.32
2022-08-11T03:06:36.440Z,87.02
2022-08-11T03:07:36.423Z,87.12
2022-08-11T03:08:36.437Z,87.53
2022-08-11T03:09:36.411Z,87.53
2022-08-11T03:10:36.413Z,87.32
2022-08-11T03:11:36.473Z,87.53
2022-08-11T03:12:36.689Z,88.04
2022-08-11T03:13:36.379Z,88.76
2022-08-11T03:14:36.371Z,88.04
2022-08-11T03:15:36.357Z,88.76
2022-08-11T03:16:36.371Z,89.17
2022-08-11T03:17:36.339Z,88.14
2022-08-11T03:18:36.441Z,87.73
2022-08-11T03:19:36.344Z,88.45
2022-08-11T03:20:38.232Z,87.73
2022-08-11T03:22:01.828Z,87.43
2022-08-11T03:22:36.572Z,89.06
2022-08-11T03:23:36.327Z,89.51
2022-08-11T03:24:36.289Z,88.79
2022-08-11T03:25:36.270Z,88.18
2022-08-11T03:26:36.212Z,87.57
2022-08-11T03:27:36.338Z,87.37
2022-08-11T03:28:36.269Z,89.20
2022-08-11T03:29:36.236Z,90.12
2022-08-11T03:30:36.189Z,90.23
2022-08-11T03:31:36.165Z,89.61
2022-08-11T03:32:36.312Z,90.43
2022-08-11T03:33:36.199Z,90.53
2022-08-11T03:34:36.210Z,90.43
2022-08-11T03:35:44.424Z,90.64
2022-08-11T03:36:54.714Z,90.47
2022-08-11T03:37:43.702Z,90.17
2022-08-11T03:38:36.120Z,90.58
2022-08-11T03:39:36.155Z,90.37
2022-08-11T03:40:36.083Z,89.86
2022-08-11T03:42:02.464Z,90.12
2022-08-11T03:42:36.235Z,90.12
2022-08-11T03:43:36.061Z,90.43
2022-08-11T03:44:36.059Z,90.43
2022-08-11T03:45:40.713Z,90.53
2022-08-11T03:46:36.038Z,90.02
2022-08-11T03:47:36.029Z,90.12
2022-08-11T03:48:36.011Z,90.43
2022-08-11T03:49:36.008Z,89.31
2022-08-11T03:50:36.014Z,89.20
2022-08-11T03:51:45.007Z,89.11
2022-08-11T03:52:36.117Z,89.00
2022-08-11T03:53:36.000Z,89.61
2022-08-11T03:54:35.966Z,89.51
2022-08-11T03:55:36.025Z,89.41
2022-08-11T03:56:35.944Z,89.25
2022-08-11T03:57:35.945Z,89.35
2022-08-11T03:58:41.238Z,89.35
2022-08-11T03:59:35.934Z,89.65
2022-08-11T04:00:35.909Z,89.56
2022-08-11T04:01:36.000Z,89.76
2022-08-11T04:02:35.958Z,90.37
2022-08-11T04:03:35.887Z,90.37
2022-08-11T04:04:35.871Z,90.99
2022-08-11T04:05:35.900Z,90.78
2022-08-11T04:06:35.871Z,90.99
2022-08-11T04:07:35.867Z,91.39
2022-08-11T04:08:35.849Z,91.29
2022-08-11T04:09:35.837Z,91.50
2022-08-11T04:10:35.866Z,91.50
2022-08-11T04:11:35.840Z,91.09
2022-08-11T04:12:37.095Z,90.99
2022-08-11T04:13:35.814Z,89.86
2022-08-11T04:14:35.791Z,89.31
2022-08-11T04:15:35.787Z,89.00
2022-08-11T04:16:35.778Z,88.45
2022-08-11T04:17:35.788Z,88.85
2022-08-11T04:18:35.753Z,88.76
2022-08-11T04:19:35.771Z,88.76
2022-08-11T04:20:35.739Z,88.96
2022-08-11T04:21:35.733Z,88.10
2022-08-11T04:22:35.733Z,87.49
2022-08-11T04:24:37.119Z,86.73
2022-08-11T04:24:48.381Z,85.88
2022-08-11T04:25:57.635Z,85.33
2022-08-11T04:26:35.699Z,84.98
2022-08-11T04:27:36.812Z,83.21
2022-08-11T04:28:43.039Z,81.95
2022-08-11T04:29:36.492Z,81.54
2022-08-11T04:30:37.662Z,80.93
2022-08-11T04:31:51.949Z,80.49
2022-08-11T04:32:35.785Z,80.32
2022-08-11T04:33:35.627Z,80.38
2022-08-11T04:34:35.611Z,80.04
2022-08-11T04:35:35.613Z,79.29
2022-08-11T04:36:35.597Z,78.75
2022-08-11T04:37:35.601Z,77.83
2022-08-11T04:38:35.606Z,78.24
2022-08-11T04:39:35.640Z,76.92
2022-08-11T04:40:35.557Z,76.82
2022-08-11T04:41:35.557Z,76.86
2022-08-11T04:42:35.541Z,77.81
2022-08-11T04:43:35.553Z,78.41
2022-08-11T04:44:35.524Z,79.06
2022-08-11T04:45:35.521Z,79.50
2022-08-11T04:46:35.503Z,80.87
2022-08-11T04:48:01.475Z,81.38
2022-08-11T04:48:35.977Z,81.38
2022-08-11T04:49:35.492Z,81.82
2022-08-11T04:50:35.495Z,82.74
2022-08-11T04:51:35.484Z,83.45
2022-08-11T04:52:36.063Z,83.96
2022-08-11T04:53:35.473Z,84.88
2022-08-11T04:54:35.433Z,83.56
2022-08-11T04:55:36.133Z,82.84
2022-08-11T04:56:35.418Z,83.04
2022-08-11T04:57:35.413Z,82.94
2022-08-11T04:58:35.413Z,83.45
2022-08-11T04:59:35.426Z,83.25
2022-08-11T05:00:35.383Z,82.94
2022-08-11T05:01:37.532Z,83.21
2022-08-11T05:02:35.363Z,83.01
2022-08-11T05:03:35.382Z,82.90
2022-08-11T05:04:35.345Z,83.01
2022-08-11T05:05:35.342Z,83.42
2022-08-11T05:06:35.329Z,83.62
2022-08-11T05:07:35.322Z,83.21
2022-08-11T05:08:35.317Z,83.01
2022-08-11T05:09:35.319Z,82.80
2022-08-11T05:10:39.944Z,82.70
2022-08-11T05:11:35.290Z,83.31
2022-08-11T05:12:35.272Z,83.11
2022-08-11T05:13:35.270Z,82.80
2022-08-11T05:14:35.270Z,82.50
2022-08-11T05:15:42.681Z,82.40
2022-08-11T05:16:35.249Z,81.41
2022-08-11T05:17:35.235Z,82.07
2022-08-11T05:18:35.242Z,82.82
2022-08-11T05:19:35.219Z,83.02
2022-08-11T05:20:35.209Z,83.26
2022-08-11T05:21:44.508Z,83.57
2022-08-11T05:22:35.192Z,83.98
2022-08-11T05:23:35.193Z,84.28
2022-08-11T05:24:35.177Z,84.63
2022-08-11T05:26:44.856Z,85.04
2022-08-11T05:26:53.297Z,85.35
2022-08-11T05:27:35.146Z,85.65
2022-08-11T05:28:35.164Z,85.86
2022-08-11T05:29:35.152Z,86.06
2022-08-11T05:30:35.121Z,86.67
2022-08-11T05:31:35.108Z,86.57
2022-08-11T05:32:35.099Z,86.57
2022-08-11T05:33:35.088Z,86.77
2022-08-11T05:34:35.115Z,86.83
2022-08-11T05:36:01.448Z,86.83
2022-08-11T05:36:35.112Z,86.83
2022-08-11T05:37:35.057Z,87.14
2022-08-11T05:38:35.054Z,87.51
2022-08-11T05:39:36.875Z,87.20
2022-08-11T05:40:35.031Z,86.80
2022-08-11T05:41:35.017Z,86.49
2022-08-11T05:42:35.022Z,86.55
2022-08-11T05:43:35.007Z,87.16
2022-08-11T05:44:35.006Z,86.21
2022-08-11T05:45:58.187Z,85.90
2022-08-11T05:46:34.976Z,85.05
2022-08-11T05:47:34.966Z,84.43
2022-08-11T05:48:34.955Z,83.92
2022-08-11T05:49:34.967Z,83.68
2022-08-11T05:50:34.939Z,84.29
2022-08-11T05:51:34.933Z,85.61
2022-08-11T05:52:34.937Z,86.53
2022-08-11T05:53:42.799Z,86.33
2022-08-11T05:54:34.935Z,85.88
2022-08-11T05:55:34.923Z,85.68
2022-08-11T05:56:34.919Z,85.17
2022-08-11T05:57:49.482Z,84.56
2022-08-11T05:58:38.251Z,83.54
2022-08-11T05:59:34.864Z,83.23
2022-08-11T06:00:34.870Z,83.64
2022-08-11T06:01:34.921Z,83.64
2022-08-11T06:02:34.832Z,84.11
2022-08-11T06:03:34.821Z,84.31
2022-08-11T06:04:34.808Z,83.91
2022-08-11T06:05:38.289Z,84.01
2022-08-11T06:06:34.815Z,84.52
2022-08-11T06:07:47.345Z,84.11
2022-08-11T06:08:34.808Z,83.87
2022-08-11T06:09:34.776Z,83.46
2022-08-11T06:10:34.790Z,84.28
2022-08-11T06:11:43.263Z,83.12
2022-08-11T06:12:34.753Z,83.62
2022-08-11T06:13:34.748Z,83.32
2022-08-11T06:14:34.759Z,83.38
2022-08-11T06:15:34.722Z,83.08
2022-08-11T06:16:34.738Z,82.33
2022-08-11T06:17:38.397Z,82.53
2022-08-11T06:18:34.689Z,82.12
2022-08-11T06:19:34.694Z,82.09
2022-08-11T06:20:34.670Z,81.07
2022-08-11T06:21:34.677Z,80.36
2022-08-11T06:22:34.695Z,81.58
2022-08-11T06:23:36.104Z,81.18
2022-08-11T06:24:34.639Z,81.48
2022-08-11T06:25:34.631Z,81.88
2022-08-11T06:26:44.816Z,81.48
2022-08-11T06:27:34.665Z,81.99
2022-08-11T06:28:34.629Z,82.29
2022-08-11T06:29:38.062Z,82.05
2022-08-11T06:30:34.636Z,81.54
2022-08-11T06:31:34.620Z,80.69
2022-08-11T06:32:34.592Z,80.69
2022-08-11T06:33:34.592Z,79.54
2022-08-11T06:34:34.555Z,79.44
2022-08-11T06:35:34.564Z,79.54
2022-08-11T06:36:34.555Z,78.93
2022-08-11T06:37:36.746Z,78.93
2022-08-11T06:38:34.513Z,79.44
2022-08-11T06:39:34.575Z,78.89
2022-08-11T06:40:34.611Z,77.98
2022-08-11T06:41:34.584Z,77.17
2022-08-11T06:42:34.534Z,77.58
2022-08-11T06:43:34.514Z,78.86
2022-08-11T06:44:34.488Z,76.73
2022-08-11T06:45:34.512Z,76.23
2022-08-11T06:46:35.343Z,75.72
2022-08-11T06:47:36.096Z,76.23
2022-08-11T06:48:37.171Z,76.53
2022-08-11T06:49:34.433Z,77.00
2022-08-11T06:50:35.083Z,75.58
2022-08-11T06:51:34.404Z,75.55
2022-08-11T06:52:36.059Z,73.83
2022-08-11T06:53:34.406Z,74.13
2022-08-11T06:54:34.376Z,73.93
2022-08-11T06:55:56.697Z,72.31
2022-08-11T06:58:23.409Z,71.67
2022-08-11T06:59:23.431Z,72.04
2022-08-11T07:00:23.416Z,70.83
2022-08-11T07:01:23.526Z,71.44
2022-08-11T07:02:25.907Z,72.34
2022-08-11T07:03:23.467Z,71.80
2022-08-11T07:04:23.379Z,71.70
2022-08-11T07:05:23.379Z,70.89
2022-08-11T07:06:23.369Z,71.26
2022-08-11T07:07:23.353Z,71.17
2022-08-11T07:08:33.695Z,70.46
2022-08-11T07:09:23.375Z,70.96
2022-08-11T07:10:23.324Z,71.17
2022-08-11T07:11:23.319Z,70.46
2022-08-11T07:12:23.307Z,71.40
2022-08-11T07:13:44.183Z,71.40
2022-08-11T07:14:23.316Z,72.11
2022-08-11T07:15:23.286Z,71.97
2022-08-11T07:16:25.800Z,70.66
2022-08-11T07:17:23.268Z,72.07
2022-08-11T07:18:23.256Z,72.48
2022-08-11T07:19:23.246Z,72.04
2022-08-11T07:20:23.302Z,71.03
2022-08-11T07:22:01.757Z,70.79
2022-08-11T07:22:23.226Z,70.19
2022-08-11T07:23:23.225Z,69.38
2022-08-11T07:24:23.201Z,70.19
2022-08-11T07:25:23.222Z,69.79
2022-08-11T07:26:23.184Z,69.18
2022-08-11T07:27:23.177Z,68.07
2022-08-11T07:28:23.172Z,68.54
2022-08-11T07:29:23.163Z,68.65
2022-08-11T07:30:23.283Z,68.85
2022-08-11T07:31:23.163Z,69.15
2022-08-11T07:32:23.138Z,68.14
2022-08-11T07:34:08.053Z,68.74
2022-08-11T07:34:23.116Z,67.13
2022-08-11T07:35:23.125Z,68.85
2022-08-11T07:36:23.096Z,66.39
2022-08-11T07:37:23.101Z,67.71
2022-08-11T07:38:25.285Z,67.60
2022-08-11T07:39:23.153Z,66.19
2022-08-11T07:40:23.133Z,66.50
2022-08-11T07:41:23.067Z,67.71
2022-08-11T07:42:23.051Z,67.97
2022-08-11T07:43:23.085Z,67.37
2022-08-11T07:44:23.021Z,66.87
2022-08-11T07:45:23.032Z,67.07
2022-08-11T07:46:23.018Z,65.86
2022-08-11T07:47:23.020Z,66.16
2022-08-11T07:48:22.986Z,65.76
2022-08-11T07:49:22.982Z,66.27
2022-08-11T07:50:23.034Z,66.87
2022-08-11T07:51:23.005Z,66.83
2022-08-11T07:52:22.949Z,67.84
2022-08-11T07:53:22.958Z,67.74
2022-08-11T07:54:22.933Z,66.53
2022-08-11T07:55:49.142Z,67.41
2022-08-11T07:56:39.542Z,66.00
2022-08-11T07:57:59.486Z,66.40
2022-08-11T07:58:22.906Z,66.00
2022-08-11T07:59:22.927Z,65.33
2022-08-11T08:00:22.948Z,66.71
2022-08-11T08:01:23.024Z,67.21
2022-08-11T08:02:22.886Z,67.41
2022-08-11T08:03:22.881Z,67.38
2022-08-11T08:04:22.848Z,66.37
2022-08-11T08:05:22.838Z,65.06
2022-08-11T08:06:36.156Z,65.56
2022-08-11T08:07:22.835Z,66.17
2022-08-11T08:08:22.806Z,65.87
2022-08-11T08:09:22.805Z,65.84
2022-08-11T08:10:22.826Z,65.13
2022-08-11T08:11:27.289Z,64.73
2022-08-11T08:12:22.805Z,63.93
2022-08-11T08:13:22.767Z,64.20
2022-08-11T08:14:22.757Z,63.62
2022-08-11T08:15:22.756Z,64.90
2022-08-11T08:16:22.738Z,66.74
2022-08-11T08:17:22.756Z,66.11
2022-08-11T08:18:27.612Z,64.40
2022-08-11T08:19:22.760Z,65.20
2022-08-11T08:20:22.753Z,65.27
2022-08-11T08:21:22.706Z,64.27
2022-08-11T08:22:48.297Z,64.97
2022-08-11T08:23:22.694Z,63.17
2022-08-11T08:24:22.718Z,62.26
2022-08-11T08:25:22.666Z,63.06
2022-08-11T08:26:22.742Z,63.26
2022-08-11T08:27:22.647Z,61.66
2022-08-11T08:28:22.670Z,62.26
2022-08-11T08:29:22.644Z,62.46
2022-08-11T08:30:22.655Z,63.76
2022-08-11T08:31:22.617Z,65.17
2022-08-11T08:32:22.643Z,64.64
2022-08-11T08:33:22.611Z,64.64
2022-08-11T08:34:22.605Z,62.53
2022-08-11T08:35:22.587Z,62.33
2022-08-11T08:36:22.563Z,61.52
2022-08-11T08:37:45.323Z,61.93
2022-08-11T08:38:22.577Z,62.73
2022-08-11T08:39:22.608Z,63.64
2022-08-11T08:40:22.548Z,63.53
2022-08-11T08:41:22.555Z,61.43
2022-08-11T08:42:22.520Z,62.53
2022-08-11T08:43:22.503Z,62.63
2022-08-11T08:44:40.959Z,62.23
2022-08-11T08:45:22.494Z,60.93
2022-08-11T08:46:31.026Z,61.13
2022-08-11T08:47:37.612Z,61.50
2022-08-11T08:48:22.465Z,62.50
2022-08-11T08:49:22.464Z,63.81
2022-08-11T08:50:27.692Z,62.10
2022-08-11T08:51:22.435Z,62.70
2022-08-11T08:52:29.526Z,61.00
2022-08-11T08:53:22.431Z,61.30
2022-08-11T08:54:22.424Z,61.00
2022-08-11T08:55:22.406Z,63.81
2022-08-11T08:56:22.409Z,62.67
2022-08-11T08:57:22.384Z,61.19
2022-08-11T08:58:22.426Z,61.47
2022-08-11T08:59:22.413Z,61.77
2022-08-11T09:00:23.611Z,63.17
2022-08-11T09:01:22.441Z,61.54
2022-08-11T09:02:34.727Z,61.74
2022-08-11T09:03:41.005Z,60.24
2022-08-11T09:04:22.388Z,60.33
2022-08-11T09:05:22.353Z,61.24
2022-08-11T09:06:22.336Z,61.34
2022-08-11T09:07:35.900Z,61.34
2022-08-11T09:08:22.318Z,60.94
2022-08-11T09:09:22.322Z,60.84
2022-08-11T09:10:22.301Z,59.74
2022-08-11T09:11:22.251Z,60.33
2022-08-11T09:12:38.178Z,60.53
2022-08-11T09:13:22.248Z,60.41
2022-08-11T09:14:22.250Z,60.91
2022-08-11T09:15:22.216Z,59.81
2022-08-11T09:16:22.217Z,60.61
2022-08-11T09:17:22.199Z,58.11
2022-08-11T09:18:22.191Z,60.41
2022-08-11T09:19:22.199Z,59.91
2022-08-11T09:20:22.193Z,60.51
2022-08-11T09:21:39.205Z,60.08
2022-08-11T09:22:22.162Z,60.48
2022-08-11T09:24:26.279Z,60.98
2022-08-11T09:25:22.125Z,59.88
2022-08-11T09:26:22.121Z,59.68
2022-08-11T09:27:22.127Z,60.58
2022-08-11T09:28:22.108Z,60.18
2022-08-11T09:29:22.113Z,60.78
2022-08-11T09:30:22.104Z,60.08
2022-08-11T09:31:22.141Z,59.88
2022-08-11T09:32:22.085Z,58.78
2022-08-11T09:33:22.054Z,59.78
2022-08-11T09:34:22.052Z,59.18
2022-08-11T09:35:22.069Z,58.28
2022-08-11T09:36:22.037Z,59.50
2022-08-11T09:37:54.945Z,60.91
2022-08-11T09:38:22.019Z,59.50
2022-08-11T09:39:22.022Z,60.01
2022-08-11T09:40:21.999Z,59.31
2022-08-11T09:41:25.669Z,59.20
2022-08-11T09:42:23.093Z,60.28
2022-08-11T09:43:21.958Z,61.18
2022-08-11T09:44:21.959Z,61.08
2022-08-11T09:45:21.945Z,60.55
2022-08-11T09:46:21.952Z,60.15
2022-08-11T09:47:21.957Z,59.25
2022-08-11T09:48:21.920Z,58.75
2022-08-11T09:49:21.907Z,59.45
2022-08-11T09:50:22.663Z,59.15
2022-08-11T09:51:21.922Z,58.55
2022-08-11T09:52:21.887Z,57.45
2022-08-11T09:53:36.146Z,56.37
2022-08-11T09:54:21.872Z,58.28
2022-08-11T09:55:21.853Z,57.57
2022-08-11T09:56:21.877Z,56.87
2022-08-11T09:57:23.514Z,57.87
2022-08-11T09:58:42.919Z,58.78
2022-08-11T09:59:21.821Z,57.78
2022-08-11T10:00:21.811Z,57.37
2022-08-11T10:01:21.852Z,57.87
2022-08-11T10:02:21.817Z,58.28
2022-08-11T10:03:21.787Z,58.68
2022-08-11T10:04:21.816Z,59.48
2022-08-11T10:05:21.770Z,59.85
2022-08-11T10:06:21.772Z,58.35
2022-08-11T10:07:21.830Z,59.35
2022-08-11T10:08:21.756Z,58.15
2022-08-11T10:09:21.727Z,59.45
2022-08-11T10:10:21.722Z,60.22
2022-08-11T10:11:21.706Z,58.42
2022-08-11T10:12:21.725Z,58.12
2022-08-11T10:14:32.010Z,59.12
2022-08-11T10:14:44.388Z,60.22
2022-08-11T10:15:21.678Z,58.12
2022-08-11T10:16:21.669Z,57.62
2022-08-11T10:17:21.763Z,58.22
2022-08-11T10:22:05.289Z,59.22
2022-08-11T10:23:04.765Z,57.50
2022-08-11T10:24:05.661Z,57.79
2022-08-11T10:25:04.725Z,57.19
2022-08-11T10:26:04.703Z,59.59
2022-08-11T10:27:04.719Z,58.99
2022-08-11T10:28:32.810Z,58.89
2022-08-11T10:29:13.196Z,58.89
2022-08-11T10:30:04.707Z,57.19
2022-08-11T10:31:04.701Z,56.20
2022-08-11T10:32:04.786Z,56.46
2022-08-11T10:33:04.684Z,56.59
2022-08-11T10:34:04.669Z,58.09
2022-08-11T10:35:04.683Z,57.46
2022-08-11T10:36:16.111Z,58.37
2022-08-11T10:37:05.811Z,58.47
2022-08-11T10:38:07.305Z,58.97
2022-08-11T10:39:04.617Z,57.84
2022-08-11T10:40:04.635Z,57.64
2022-08-11T10:41:13.243Z,57.04
2022-08-11T10:42:08.453Z,57.34
2022-08-11T10:43:04.598Z,56.54
2022-08-11T10:44:04.550Z,56.54
2022-08-11T10:45:04.562Z,56.01
2022-08-11T10:46:04.537Z,56.31
2022-08-11T10:47:04.573Z,57.71
2022-08-11T10:48:05.309Z,57.11
2022-08-11T10:49:04.568Z,57.31
2022-08-11T10:50:05.500Z,57.61
2022-08-11T10:51:12.806Z,57.91
2022-08-11T10:52:04.475Z,57.11
2022-08-11T10:53:04.485Z,56.51
2022-08-11T10:54:22.607Z,56.51
2022-08-11T10:55:10.169Z,57.11
2022-08-11T10:56:17.686Z,57.31
2022-08-11T10:57:20.917Z,57.41
2022-08-11T10:58:06.843Z,56.61
2022-08-11T10:59:10.114Z,57.61
2022-08-11T11:00:22.258Z,57.41
2022-08-11T11:01:06.154Z,55.69
2022-08-11T11:02:07.138Z,56.38
2022-08-11T11:03:28.516Z,56.09
2022-08-11T11:04:56.322Z,56.48
2022-08-11T11:05:08.596Z,56.38
2022-08-11T11:06:27.549Z,55.69
2022-08-11T11:07:35.953Z,56.96
2022-08-11T11:08:12.854Z,55.86
2022-08-11T11:09:39.824Z,55.66
2022-08-11T11:10:07.974Z,55.56
2022-08-11T11:11:11.645Z,57.26
2022-08-11T11:12:11.907Z,56.85
2022-08-11T11:13:09.498Z,56.26
2022-08-11T11:14:46.058Z,56.66
2022-08-11T11:16:07.063Z,56.33
2022-08-11T11:16:23.849Z,56.73
2022-08-11T11:17:24.837Z,56.13
2022-08-11T11:18:31.142Z,56.23
2022-08-11T11:19:39.293Z,56.63
2022-08-11T11:20:36.545Z,56.53
2022-08-11T11:21:22.847Z,56.30
2022-08-11T11:22:41.050Z,55.41
2022-08-11T11:23:31.427Z,55.31
2022-08-11T11:25:56.780Z,54.91
2022-08-11T11:26:08.439Z,54.51
2022-08-11T11:27:05.273Z,55.41
2022-08-11T11:28:10.444Z,54.21
2022-08-11T11:29:02.055Z,56.51
2022-08-11T11:30:02.067Z,54.11
2022-08-11T11:31:04.358Z,54.61
2022-08-11T11:32:10.367Z,53.61
2022-08-11T11:33:04.395Z,53.91
2022-08-11T11:34:12.412Z,54.91
2022-08-11T11:35:05.911Z,54.31
2022-08-11T11:36:07.841Z,55.80
2022-08-11T11:39:42.336Z,53.81
2022-08-11T11:40:39.800Z,55.31
2022-08-11T11:41:39.802Z,55.68
2022-08-11T11:42:48.158Z,54.91
2022-08-11T11:43:42.509Z,54.08
2022-08-11T11:45:02.873Z,52.69
2022-08-11T11:45:55.888Z,54.28
2022-08-11T11:46:43.601Z,52.99
2022-08-11T11:47:45.393Z,53.69
2022-08-11T11:52:26.465Z,53.29
2022-08-11T11:53:27.425Z,53.86
2022-08-11T11:55:06.968Z,52.29
2022-08-11T11:55:27.433Z,52.37
2022-08-11T11:58:43.066Z,53.46
2022-08-11T11:59:43.091Z,51.37
2022-08-11T12:01:50.196Z,53.36
2022-08-11T12:04:13.629Z,54.16
2022-08-11T12:04:24.198Z,52.84
2022-08-11T12:05:40.009Z,54.03
2022-08-11T12:06:25.132Z,52.74
2022-08-11T12:14:43.926Z,53.24
2022-08-11T12:18:34.143Z,51.25
2022-08-11T12:22:46.340Z,51.45
2022-08-11T12:23:47.293Z,51.35
2022-08-11T12:24:55.577Z,51.35
2022-08-11T12:30:15.310Z,52.04
2022-08-11T12:30:20.140Z,50.03
2022-08-11T12:31:25.691Z,50.13
2022-08-11T12:32:26.647Z,51.12
2022-08-11T12:33:39.286Z,51.72
2022-08-11T12:34:30.034Z,51.82
2022-08-11T12:40:43.279Z,51.12
2022-08-11T12:41:34.425Z,50.31
2022-08-11T12:41:47.421Z,51.20
2022-08-11T12:42:56.556Z,49.11
2022-08-11T12:43:57.050Z,51.00
2022-08-11T12:44:43.493Z,51.00
2022-08-11T12:45:43.443Z,50.20
2022-08-11T12:46:43.473Z,49.11
2022-08-11T12:47:43.453Z,48.71
2022-08-11T12:48:59.828Z,49.41
2022-08-11T12:49:45.662Z,50.20
2022-08-11T12:50:43.401Z,49.80
2022-08-11T12:52:11.976Z,50.70
2022-08-11T12:52:43.390Z,49.31
2022-08-11T12:53:43.399Z,48.41
2022-08-11T12:54:43.373Z,49.80
2022-08-11T12:55:43.366Z,50.48
2022-08-11T12:56:43.357Z,51.47
2022-08-11T12:57:43.336Z,48.69
2022-08-11T12:58:43.332Z,48.99
2022-08-11T12:59:43.345Z,49.58
2022-08-11T13:00:43.426Z,49.78
2022-08-11T13:01:43.310Z,51.17
2022-08-11T13:02:44.573Z,50.38
2022-08-11T13:03:43.282Z,50.28
2022-08-11T13:04:43.299Z,50.88
2022-08-11T13:05:45.156Z,48.10
2022-08-11T13:06:43.265Z,50.05
2022-08-11T13:07:50.692Z,49.86
2022-08-11T13:08:43.246Z,50.05
2022-08-11T13:09:44.695Z,49.76
2022-08-11T13:10:43.231Z,51.65
2022-08-11T13:11:57.090Z,49.66
2022-08-11T13:12:43.215Z,50.83
2022-08-11T13:13:55.270Z,51.03
2022-08-11T13:14:43.189Z,49.54
2022-08-11T13:15:43.200Z,49.74
2022-08-11T13:16:43.167Z,48.35
2022-08-11T13:17:44.294Z,48.54
2022-08-11T13:18:43.157Z,48.27
2022-08-11T13:19:47.449Z,49.76
2022-08-11T13:20:43.153Z,49.44
2022-08-11T13:21:43.114Z,49.24
2022-08-11T13:22:43.112Z,50.03
2022-08-11T13:23:43.096Z,48.74
2022-08-11T13:24:43.099Z,50.13
2022-08-11T13:25:43.096Z,50.43
2022-08-11T13:26:47.274Z,48.62
2022-08-11T13:27:43.127Z,48.82
2022-08-11T13:28:43.056Z,48.82
2022-08-11T13:29:43.041Z,48.62
2022-08-11T13:30:46.805Z,48.92
2022-08-11T13:31:43.028Z,47.23